sensor_id;sensor_type;location;lat;lon;timestamp;temperature;humidity
70534;SHT31;58088;51.186;17.130;2023-04-24T00:00:57;15.73;66.19
70534;SHT31;58088;51.186;17.130;2023-04-24T00:03:25;15.76;66.17
70534;SHT31;58088;51.186;17.130;2023-04-24T00:05:56;15.76;66.12
70534;SHT31;58088;51.186;17.130;2023-04-24T00:08:22;15.76;66.05
70534;SHT31;58088;51.186;17.130;2023-04-24T00:10:49;15.76;66.08
70534;SHT31;58088;51.186;17.130;2023-04-24T00:13:15;15.76;66.08
70534;SHT31;58088;51.186;17.130;2023-04-24T00:15:41;15.75;66.06
70534;SHT31;58088;51.186;17.130;2023-04-24T00:18:08;15.72;66.17
70534;SHT31;58088;51.186;17.130;2023-04-24T00:20:34;15.70;66.24
70534;SHT31;58088;51.186;17.130;2023-04-24T00:23:01;15.67;66.40
70534;SHT31;58088;51.186;17.130;2023-04-24T00:25:27;15.65;66.42
70534;SHT31;58088;51.186;17.130;2023-04-24T00:27:56;15.65;66.45
70534;SHT31;58088;51.186;17.130;2023-04-24T00:30:22;15.66;66.44
70534;SHT31;58088;51.186;17.130;2023-04-24T00:32:48;15.63;66.49
70534;SHT31;58088;51.186;17.130;2023-04-24T00:35:14;15.61;66.46
70534;SHT31;58088;51.186;17.130;2023-04-24T00:37:42;15.63;66.42
70534;SHT31;58088;51.186;17.130;2023-04-24T00:40:09;15.65;66.35
70534;SHT31;58088;51.186;17.130;2023-04-24T00:42:36;15.66;66.36
70534;SHT31;58088;51.186;17.130;2023-04-24T00:45:03;15.71;66.32
70534;SHT31;58088;51.186;17.130;2023-04-24T00:47:32;15.69;66.31
70534;SHT31;58088;51.186;17.130;2023-04-24T00:50:03;15.69;66.27
70534;SHT31;58088;51.186;17.130;2023-04-24T00:52:31;15.72;66.19
70534;SHT31;58088;51.186;17.130;2023-04-24T00:54:58;15.74;66.36
70534;SHT31;58088;51.186;17.130;2023-04-24T00:57:24;15.76;66.40
70534;SHT31;58088;51.186;17.130;2023-04-24T00:59:51;15.76;66.52
70534;SHT31;58088;51.186;17.130;2023-04-24T01:02:18;15.72;66.75
70534;SHT31;58088;51.186;17.130;2023-04-24T01:04:48;15.72;66.56
70534;SHT31;58088;51.186;17.130;2023-04-24T01:07:18;15.75;66.48
70534;SHT31;58088;51.186;17.130;2023-04-24T01:09:46;15.76;66.80
70534;SHT31;58088;51.186;17.130;2023-04-24T01:12:14;15.73;67.00
70534;SHT31;58088;51.186;17.130;2023-04-24T01:14:43;15.68;67.06
70534;SHT31;58088;51.186;17.130;2023-04-24T01:17:10;15.66;67.10
70534;SHT31;58088;51.186;17.130;2023-04-24T01:19:37;15.67;67.18
70534;SHT31;58088;51.186;17.130;2023-04-24T01:22:08;15.67;67.07
70534;SHT31;58088;51.186;17.130;2023-04-24T01:24:37;15.67;67.25
70534;SHT31;58088;51.186;17.130;2023-04-24T01:27:04;15.68;67.36
70534;SHT31;58088;51.186;17.130;2023-04-24T01:29:30;15.67;67.38
70534;SHT31;58088;51.186;17.130;2023-04-24T01:31:57;15.67;67.29
70534;SHT31;58088;51.186;17.130;2023-04-24T01:34:24;15.64;67.48
70534;SHT31;58088;51.186;17.130;2023-04-24T01:36:51;15.63;67.54
70534;SHT31;58088;51.186;17.130;2023-04-24T01:39:17;15.64;67.38
70534;SHT31;58088;51.186;17.130;2023-04-24T01:41:43;15.64;67.27
70534;SHT31;58088;51.186;17.130;2023-04-24T01:44:10;15.65;67.20
70534;SHT31;58088;51.186;17.130;2023-04-24T01:46:37;15.64;67.32
70534;SHT31;58088;51.186;17.130;2023-04-24T01:49:04;15.62;67.44
70534;SHT31;58088;51.186;17.130;2023-04-24T01:51:30;15.59;67.41
70534;SHT31;58088;51.186;17.130;2023-04-24T01:53:57;15.58;67.47
70534;SHT31;58088;51.186;17.130;2023-04-24T01:56:23;15.55;67.60
70534;SHT31;58088;51.186;17.130;2023-04-24T01:58:51;15.54;67.62
70534;SHT31;58088;51.186;17.130;2023-04-24T02:01:20;15.54;67.59
70534;SHT31;58088;51.186;17.130;2023-04-24T02:04:06;15.52;67.73
70534;SHT31;58088;51.186;17.130;2023-04-24T02:06:34;15.50;67.74
70534;SHT31;58088;51.186;17.130;2023-04-24T02:09:01;15.49;67.71
70534;SHT31;58088;51.186;17.130;2023-04-24T02:11:28;15.49;67.76
70534;SHT31;58088;51.186;17.130;2023-04-24T02:13:54;15.52;67.74
70534;SHT31;58088;51.186;17.130;2023-04-24T02:16:20;15.53;67.61
70534;SHT31;58088;51.186;17.130;2023-04-24T02:18:56;15.53;67.54
70534;SHT31;58088;51.186;17.130;2023-04-24T02:21:23;15.52;67.54
70534;SHT31;58088;51.186;17.130;2023-04-24T02:23:49;15.52;67.80
70534;SHT31;58088;51.186;17.130;2023-04-24T02:26:16;15.51;68.08
70534;SHT31;58088;51.186;17.130;2023-04-24T02:28:43;15.48;68.08
70534;SHT31;58088;51.186;17.130;2023-04-24T02:31:10;15.47;68.19
70534;SHT31;58088;51.186;17.130;2023-04-24T02:33:36;15.45;68.40
70534;SHT31;58088;51.186;17.130;2023-04-24T02:36:02;15.42;68.56
70534;SHT31;58088;51.186;17.130;2023-04-24T02:38:28;15.38;68.73
70534;SHT31;58088;51.186;17.130;2023-04-24T02:40:55;15.37;68.95
70534;SHT31;58088;51.186;17.130;2023-04-24T02:43:21;15.37;69.00
70534;SHT31;58088;51.186;17.130;2023-04-24T02:45:47;15.32;69.12
70534;SHT31;58088;51.186;17.130;2023-04-24T02:48:14;15.27;69.13
70534;SHT31;58088;51.186;17.130;2023-04-24T02:50:40;15.25;69.15
70534;SHT31;58088;51.186;17.130;2023-04-24T02:53:06;15.23;69.34
70534;SHT31;58088;51.186;17.130;2023-04-24T02:55:33;15.20;69.43
70534;SHT31;58088;51.186;17.130;2023-04-24T02:57:59;15.14;69.36
70534;SHT31;58088;51.186;17.130;2023-04-24T03:00:25;15.15;69.13
70534;SHT31;58088;51.186;17.130;2023-04-24T03:02:51;15.18;69.02
70534;SHT31;58088;51.186;17.130;2023-04-24T03:05:18;15.20;68.99
70534;SHT31;58088;51.186;17.130;2023-04-24T03:07:44;15.21;69.21
70534;SHT31;58088;51.186;17.130;2023-04-24T03:10:11;15.20;69.52
70534;SHT31;58088;51.186;17.130;2023-04-24T03:12:38;15.17;69.30
70534;SHT31;58088;51.186;17.130;2023-04-24T03:15:04;15.17;69.27
70534;SHT31;58088;51.186;17.130;2023-04-24T03:17:31;15.15;69.37
70534;SHT31;58088;51.186;17.130;2023-04-24T03:19:57;15.15;69.20
70534;SHT31;58088;51.186;17.130;2023-04-24T03:22:23;15.14;69.16
70534;SHT31;58088;51.186;17.130;2023-04-24T03:24:49;15.16;69.13
70534;SHT31;58088;51.186;17.130;2023-04-24T03:27:16;15.13;69.12
70534;SHT31;58088;51.186;17.130;2023-04-24T03:29:50;15.10;69.29
70534;SHT31;58088;51.186;17.130;2023-04-24T03:32:23;15.08;69.44
70534;SHT31;58088;51.186;17.130;2023-04-24T03:34:51;15.06;69.55
70534;SHT31;58088;51.186;17.130;2023-04-24T03:37:17;15.06;69.66
70534;SHT31;58088;51.186;17.130;2023-04-24T03:39:49;15.04;69.65
70534;SHT31;58088;51.186;17.130;2023-04-24T03:42:16;15.02;69.64
70534;SHT31;58088;51.186;17.130;2023-04-24T03:44:50;15.03;69.71
70534;SHT31;58088;51.186;17.130;2023-04-24T03:47:17;14.99;69.76
70534;SHT31;58088;51.186;17.130;2023-04-24T03:49:44;14.96;69.60
70534;SHT31;58088;51.186;17.130;2023-04-24T03:52:16;14.91;69.70
70534;SHT31;58088;51.186;17.130;2023-04-24T03:54:42;14.89;69.84
70534;SHT31;58088;51.186;17.130;2023-04-24T03:57:10;14.88;69.86
70534;SHT31;58088;51.186;17.130;2023-04-24T03:59:38;14.89;69.90
70534;SHT31;58088;51.186;17.130;2023-04-24T04:02:09;14.91;69.95
70534;SHT31;58088;51.186;17.130;2023-04-24T04:04:36;14.90;69.94
70534;SHT31;58088;51.186;17.130;2023-04-24T04:07:02;14.88;70.00
70534;SHT31;58088;51.186;17.130;2023-04-24T04:09:29;14.87;69.89
70534;SHT31;58088;51.186;17.130;2023-04-24T04:11:55;14.88;69.93
70534;SHT31;58088;51.186;17.130;2023-04-24T04:14:22;14.88;69.82
70534;SHT31;58088;51.186;17.130;2023-04-24T04:16:49;14.88;69.80
70534;SHT31;58088;51.186;17.130;2023-04-24T04:19:15;14.86;69.74
70534;SHT31;58088;51.186;17.130;2023-04-24T04:21:41;14.85;69.73
70534;SHT31;58088;51.186;17.130;2023-04-24T04:24:17;14.84;69.69
70534;SHT31;58088;51.186;17.130;2023-04-24T04:26:44;14.85;69.43
70534;SHT31;58088;51.186;17.130;2023-04-24T04:29:18;14.86;69.22
70534;SHT31;58088;51.186;17.130;2023-04-24T04:31:44;14.90;68.91
70534;SHT31;58088;51.186;17.130;2023-04-24T04:34:12;14.93;68.79
70534;SHT31;58088;51.186;17.130;2023-04-24T04:36:40;14.97;68.70
70534;SHT31;58088;51.186;17.130;2023-04-24T04:39:25;15.05;68.54
70534;SHT31;58088;51.186;17.130;2023-04-24T04:42:16;15.30;68.21
70534;SHT31;58088;51.186;17.130;2023-04-24T04:44:43;15.60;67.62
70534;SHT31;58088;51.186;17.130;2023-04-24T04:47:14;16.08;67.09
70534;SHT31;58088;51.186;17.130;2023-04-24T04:49:42;16.54;66.18
70534;SHT31;58088;51.186;17.130;2023-04-24T04:52:15;17.00;65.17
70534;SHT31;58088;51.186;17.130;2023-04-24T04:54:43;17.43;64.21
70534;SHT31;58088;51.186;17.130;2023-04-24T04:57:10;17.86;63.34
70534;SHT31;58088;51.186;17.130;2023-04-24T04:59:38;18.20;62.54
70534;SHT31;58088;51.186;17.130;2023-04-24T05:02:07;18.56;61.27
70534;SHT31;58088;51.186;17.130;2023-04-24T05:04:35;18.76;60.68
70534;SHT31;58088;51.186;17.130;2023-04-24T05:07:02;18.77;60.21
70534;SHT31;58088;51.186;17.130;2023-04-24T05:09:29;18.99;59.31
70534;SHT31;58088;51.186;17.130;2023-04-24T05:12:00;19.06;58.94
70534;SHT31;58088;51.186;17.130;2023-04-24T05:14:29;19.01;58.60
70534;SHT31;58088;51.186;17.130;2023-04-24T05:16:55;19.16;58.49
70534;SHT31;58088;51.186;17.130;2023-04-24T05:19:21;19.42;57.31
70534;SHT31;58088;51.186;17.130;2023-04-24T05:21:48;19.61;56.68
70534;SHT31;58088;51.186;17.130;2023-04-24T05:24:14;19.61;56.23
70534;SHT31;58088;51.186;17.130;2023-04-24T05:26:59;19.48;56.22
70534;SHT31;58088;51.186;17.130;2023-04-24T05:29:30;19.40;56.16
70534;SHT31;58088;51.186;17.130;2023-04-24T05:31:58;19.11;56.09
70534;SHT31;58088;51.186;17.130;2023-04-24T05:34:27;18.91;56.41
70534;SHT31;58088;51.186;17.130;2023-04-24T05:36:54;18.82;56.97
70534;SHT31;58088;51.186;17.130;2023-04-24T05:39:21;18.78;56.97
70534;SHT31;58088;51.186;17.130;2023-04-24T05:41:47;18.61;56.98
70534;SHT31;58088;51.186;17.130;2023-04-24T05:44:13;18.45;57.29
70534;SHT31;58088;51.186;17.130;2023-04-24T05:46:41;18.32;57.32
70534;SHT31;58088;51.186;17.130;2023-04-24T05:49:08;18.23;57.37
70534;SHT31;58088;51.186;17.130;2023-04-24T05:51:35;18.14;57.49
70534;SHT31;58088;51.186;17.130;2023-04-24T05:54:01;18.02;57.49
70534;SHT31;58088;51.186;17.130;2023-04-24T05:56:29;17.86;57.80
70534;SHT31;58088;51.186;17.130;2023-04-24T05:58:56;17.76;58.06
70534;SHT31;58088;51.186;17.130;2023-04-24T06:01:22;17.70;58.14
70534;SHT31;58088;51.186;17.130;2023-04-24T06:03:53;17.75;58.14
70534;SHT31;58088;51.186;17.130;2023-04-24T06:06:19;17.75;58.07
70534;SHT31;58088;51.186;17.130;2023-04-24T06:08:46;17.73;58.07
70534;SHT31;58088;51.186;17.130;2023-04-24T06:11:12;17.75;58.17
70534;SHT31;58088;51.186;17.130;2023-04-24T06:13:39;17.79;58.08
70534;SHT31;58088;51.186;17.130;2023-04-24T06:16:25;17.84;58.06
70534;SHT31;58088;51.186;17.130;2023-04-24T06:18:57;17.99;58.05
70534;SHT31;58088;51.186;17.130;2023-04-24T06:21:24;18.15;57.94
70534;SHT31;58088;51.186;17.130;2023-04-24T06:23:51;18.34;57.14
70534;SHT31;58088;51.186;17.130;2023-04-24T06:26:18;18.61;56.95
70534;SHT31;58088;51.186;17.130;2023-04-24T06:28:45;18.87;55.67
70534;SHT31;58088;51.186;17.130;2023-04-24T06:31:12;18.97;55.46
70534;SHT31;58088;51.186;17.130;2023-04-24T06:33:38;19.01;55.03
70534;SHT31;58088;51.186;17.130;2023-04-24T06:36:05;19.05;54.84
70534;SHT31;58088;51.186;17.130;2023-04-24T06:38:32;19.04;54.36
70534;SHT31;58088;51.186;17.130;2023-04-24T06:40:58;19.04;54.37
70534;SHT31;58088;51.186;17.130;2023-04-24T06:43:24;19.00;53.88
70534;SHT31;58088;51.186;17.130;2023-04-24T06:45:50;18.94;54.28
70534;SHT31;58088;51.186;17.130;2023-04-24T06:48:16;18.91;54.62
70534;SHT31;58088;51.186;17.130;2023-04-24T06:50:43;18.90;54.47
70534;SHT31;58088;51.186;17.130;2023-04-24T06:53:09;18.84;54.46
70534;SHT31;58088;51.186;17.130;2023-04-24T06:55:36;18.79;54.32
70534;SHT31;58088;51.186;17.130;2023-04-24T06:58:02;18.76;54.86
70534;SHT31;58088;51.186;17.130;2023-04-24T07:00:28;18.76;55.08
70534;SHT31;58088;51.186;17.130;2023-04-24T07:02:55;18.77;54.64
70534;SHT31;58088;51.186;17.130;2023-04-24T07:05:23;18.76;54.68
70534;SHT31;58088;51.186;17.130;2023-04-24T07:07:49;18.76;54.75
70534;SHT31;58088;51.186;17.130;2023-04-24T07:10:16;18.76;55.13
70534;SHT31;58088;51.186;17.130;2023-04-24T07:12:43;18.77;55.19
70534;SHT31;58088;51.186;17.130;2023-04-24T07:15:10;18.74;55.23
70534;SHT31;58088;51.186;17.130;2023-04-24T07:17:36;18.77;55.28
70534;SHT31;58088;51.186;17.130;2023-04-24T07:20:04;18.80;55.12
70534;SHT31;58088;51.186;17.130;2023-04-24T07:22:33;18.82;54.89
70534;SHT31;58088;51.186;17.130;2023-04-24T07:24:59;18.85;54.90
70534;SHT31;58088;51.186;17.130;2023-04-24T07:27:25;18.89;54.95
70534;SHT31;58088;51.186;17.130;2023-04-24T07:29:51;18.94;55.14
70534;SHT31;58088;51.186;17.130;2023-04-24T07:32:18;19.02;54.97
70534;SHT31;58088;51.186;17.130;2023-04-24T07:34:44;19.15;55.25
70534;SHT31;58088;51.186;17.130;2023-04-24T07:37:11;19.26;55.52
70534;SHT31;58088;51.186;17.130;2023-04-24T07:39:37;19.36;55.41
70534;SHT31;58088;51.186;17.130;2023-04-24T07:42:03;19.45;55.50
70534;SHT31;58088;51.186;17.130;2023-04-24T07:44:29;19.59;55.58
70534;SHT31;58088;51.186;17.130;2023-04-24T07:46:56;19.70;55.49
70534;SHT31;58088;51.186;17.130;2023-04-24T07:49:22;19.77;55.37
70534;SHT31;58088;51.186;17.130;2023-04-24T07:51:48;19.86;55.23
70534;SHT31;58088;51.186;17.130;2023-04-24T07:54:15;19.95;54.88
70534;SHT31;58088;51.186;17.130;2023-04-24T07:56:43;20.04;54.93
70534;SHT31;58088;51.186;17.130;2023-04-24T07:59:10;20.10;54.88
70534;SHT31;58088;51.186;17.130;2023-04-24T08:01:37;20.14;54.51
70534;SHT31;58088;51.186;17.130;2023-04-24T08:04:03;20.18;54.50
70534;SHT31;58088;51.186;17.130;2023-04-24T08:06:30;20.18;53.66
70534;SHT31;58088;51.186;17.130;2023-04-24T08:08:57;20.16;53.96
70534;SHT31;58088;51.186;17.130;2023-04-24T08:11:24;20.11;53.98
70534;SHT31;58088;51.186;17.130;2023-04-24T08:13:51;20.01;53.88
70534;SHT31;58088;51.186;17.130;2023-04-24T08:16:17;19.90;53.63
70534;SHT31;58088;51.186;17.130;2023-04-24T08:18:43;19.84;53.98
70534;SHT31;58088;51.186;17.130;2023-04-24T08:21:10;19.85;53.88
70534;SHT31;58088;51.186;17.130;2023-04-24T08:23:38;19.85;54.11
70534;SHT31;58088;51.186;17.130;2023-04-24T08:26:04;19.85;54.63
70534;SHT31;58088;51.186;17.130;2023-04-24T08:28:30;19.84;54.52
70534;SHT31;58088;51.186;17.130;2023-04-24T08:30:56;19.81;54.20
70534;SHT31;58088;51.186;17.130;2023-04-24T08:33:23;19.77;54.23
70534;SHT31;58088;51.186;17.130;2023-04-24T08:35:49;19.73;54.95
70534;SHT31;58088;51.186;17.130;2023-04-24T08:38:16;19.70;55.58
70534;SHT31;58088;51.186;17.130;2023-04-24T08:40:42;19.67;55.72
70534;SHT31;58088;51.186;17.130;2023-04-24T08:43:11;19.65;56.64
70534;SHT31;58088;51.186;17.130;2023-04-24T08:45:39;19.60;57.84
70534;SHT31;58088;51.186;17.130;2023-04-24T08:48:06;19.57;58.76
70534;SHT31;58088;51.186;17.130;2023-04-24T08:50:34;19.68;59.62
70534;SHT31;58088;51.186;17.130;2023-04-24T08:53:00;19.83;59.37
70534;SHT31;58088;51.186;17.130;2023-04-24T08:55:27;20.01;59.82
70534;SHT31;58088;51.186;17.130;2023-04-24T08:57:56;20.23;60.12
70534;SHT31;58088;51.186;17.130;2023-04-24T09:00:24;20.41;59.85
70534;SHT31;58088;51.186;17.130;2023-04-24T09:02:52;20.57;59.77
70534;SHT31;58088;51.186;17.130;2023-04-24T09:05:20;20.71;59.04
70534;SHT31;58088;51.186;17.130;2023-04-24T09:07:49;20.85;58.66
70534;SHT31;58088;51.186;17.130;2023-04-24T09:10:24;20.97;57.64
70534;SHT31;58088;51.186;17.130;2023-04-24T09:12:52;21.03;57.58
70534;SHT31;58088;51.186;17.130;2023-04-24T09:15:20;21.16;57.00
70534;SHT31;58088;51.186;17.130;2023-04-24T09:17:47;21.23;56.87
70534;SHT31;58088;51.186;17.130;2023-04-24T09:20:13;21.29;55.99
70534;SHT31;58088;51.186;17.130;2023-04-24T09:22:39;21.40;56.60
70534;SHT31;58088;51.186;17.130;2023-04-24T09:25:07;21.58;56.06
70534;SHT31;58088;51.186;17.130;2023-04-24T09:27:36;21.75;55.65
70534;SHT31;58088;51.186;17.130;2023-04-24T09:30:09;21.85;55.44
70534;SHT31;58088;51.186;17.130;2023-04-24T09:32:36;21.95;55.11
70534;SHT31;58088;51.186;17.130;2023-04-24T09:35:12;22.08;54.30
70534;SHT31;58088;51.186;17.130;2023-04-24T09:37:41;22.17;53.24
70534;SHT31;58088;51.186;17.130;2023-04-24T09:43:05;22.27;53.43
70534;SHT31;58088;51.186;17.130;2023-04-24T09:45:37;22.30;53.04
70534;SHT31;58088;51.186;17.130;2023-04-24T09:48:05;22.32;52.70
70534;SHT31;58088;51.186;17.130;2023-04-24T09:50:35;22.39;52.81
70534;SHT31;58088;51.186;17.130;2023-04-24T09:53:02;22.33;52.04
70534;SHT31;58088;51.186;17.130;2023-04-24T09:55:31;22.26;52.49
70534;SHT31;58088;51.186;17.130;2023-04-24T09:57:58;22.24;52.05
70534;SHT31;58088;51.186;17.130;2023-04-24T10:00:27;22.23;52.14
70534;SHT31;58088;51.186;17.130;2023-04-24T10:02:56;22.26;52.26
70534;SHT31;58088;51.186;17.130;2023-04-24T10:05:35;22.18;51.64
70534;SHT31;58088;51.186;17.130;2023-04-24T10:08:05;22.14;52.33
70534;SHT31;58088;51.186;17.130;2023-04-24T10:10:45;22.15;51.90
70534;SHT31;58088;51.186;17.130;2023-04-24T10:13:13;22.10;51.50
70534;SHT31;58088;51.186;17.130;2023-04-24T10:15:41;21.99;51.39
70534;SHT31;58088;51.186;17.130;2023-04-24T10:18:08;21.85;50.93
70534;SHT31;58088;51.186;17.130;2023-04-24T10:20:36;21.76;51.38
70534;SHT31;58088;51.186;17.130;2023-04-24T10:23:05;21.74;51.74
70534;SHT31;58088;51.186;17.130;2023-04-24T10:25:33;21.75;51.83
70534;SHT31;58088;51.186;17.130;2023-04-24T10:28:02;21.66;52.02
70534;SHT31;58088;51.186;17.130;2023-04-24T10:30:30;21.50;51.87
70534;SHT31;58088;51.186;17.130;2023-04-24T10:33:04;21.39;52.51
70534;SHT31;58088;51.186;17.130;2023-04-24T10:35:37;21.30;52.96
70534;SHT31;58088;51.186;17.130;2023-04-24T10:38:12;21.21;53.13
70534;SHT31;58088;51.186;17.130;2023-04-24T10:40:42;21.20;53.03
70534;SHT31;58088;51.186;17.130;2023-04-24T10:43:09;21.17;52.75
70534;SHT31;58088;51.186;17.130;2023-04-24T10:45:37;21.20;52.60
70534;SHT31;58088;51.186;17.130;2023-04-24T10:48:05;21.30;53.21
70534;SHT31;58088;51.186;17.130;2023-04-24T10:50:47;21.44;52.92
70534;SHT31;58088;51.186;17.130;2023-04-24T10:53:21;21.68;52.98
70534;SHT31;58088;51.186;17.130;2023-04-24T10:56:08;21.77;51.66
70534;SHT31;58088;51.186;17.130;2023-04-24T10:58:40;21.61;50.97
70534;SHT31;58088;51.186;17.130;2023-04-24T11:04:28;21.29;51.51
70534;SHT31;58088;51.186;17.130;2023-04-24T11:06:59;21.19;52.47
70534;SHT31;58088;51.186;17.130;2023-04-24T11:09:27;21.20;52.60
70534;SHT31;58088;51.186;17.130;2023-04-24T11:12:05;21.23;52.59
70534;SHT31;58088;51.186;17.130;2023-04-24T11:17:31;21.24;52.75
70534;SHT31;58088;51.186;17.130;2023-04-24T11:20:01;21.18;52.78
70534;SHT31;58088;51.186;17.130;2023-04-24T11:22:32;21.13;53.14
70534;SHT31;58088;51.186;17.130;2023-04-24T11:25:01;21.11;52.83
70534;SHT31;58088;51.186;17.130;2023-04-24T11:27:31;21.03;52.77
70534;SHT31;58088;51.186;17.130;2023-04-24T11:30:09;20.93;52.95
70534;SHT31;58088;51.186;17.130;2023-04-24T11:32:37;20.88;52.92
70534;SHT31;58088;51.186;17.130;2023-04-24T11:35:16;20.78;52.61
70534;SHT31;58088;51.186;17.130;2023-04-24T11:37:51;20.80;52.60
70534;SHT31;58088;51.186;17.130;2023-04-24T11:40:21;20.82;52.85
70534;SHT31;58088;51.186;17.130;2023-04-24T11:42:50;20.88;52.79
70534;SHT31;58088;51.186;17.130;2023-04-24T11:45:24;20.94;52.31
70534;SHT31;58088;51.186;17.130;2023-04-24T11:47:53;21.03;52.67
70534;SHT31;58088;51.186;17.130;2023-04-24T11:50:22;21.17;52.54
70534;SHT31;58088;51.186;17.130;2023-04-24T11:52:55;21.19;52.37
70534;SHT31;58088;51.186;17.130;2023-04-24T11:55:24;21.28;52.80
70534;SHT31;58088;51.186;17.130;2023-04-24T11:57:59;21.29;52.06
70534;SHT31;58088;51.186;17.130;2023-04-24T12:00:28;21.37;52.38
70534;SHT31;58088;51.186;17.130;2023-04-24T12:03:09;21.34;51.75
70534;SHT31;58088;51.186;17.130;2023-04-24T12:05:37;21.24;51.59
70534;SHT31;58088;51.186;17.130;2023-04-24T12:08:06;21.20;51.61
70534;SHT31;58088;51.186;17.130;2023-04-24T12:10:33;21.08;51.79
70534;SHT31;58088;51.186;17.130;2023-04-24T12:13:02;20.90;52.04
70534;SHT31;58088;51.186;17.130;2023-04-24T12:15:28;20.80;52.28
70534;SHT31;58088;51.186;17.130;2023-04-24T12:17:56;20.72;52.60
70534;SHT31;58088;51.186;17.130;2023-04-24T12:20:29;20.72;52.86
70534;SHT31;58088;51.186;17.130;2023-04-24T12:22:57;20.67;52.41
70534;SHT31;58088;51.186;17.130;2023-04-24T12:25:27;20.53;52.25
70534;SHT31;58088;51.186;17.130;2023-04-24T12:30:31;20.40;52.12
70534;SHT31;58088;51.186;17.130;2023-04-24T12:33:00;20.34;52.26
70534;SHT31;58088;51.186;17.130;2023-04-24T12:35:29;20.28;52.42
70534;SHT31;58088;51.186;17.130;2023-04-24T12:38:05;20.23;52.72
70534;SHT31;58088;51.186;17.130;2023-04-24T12:40:38;20.23;53.31
70534;SHT31;58088;51.186;17.130;2023-04-24T12:43:14;20.20;53.16
70534;SHT31;58088;51.186;17.130;2023-04-24T12:45:47;20.16;53.33
70534;SHT31;58088;51.186;17.130;2023-04-24T12:48:14;20.07;53.69
70534;SHT31;58088;51.186;17.130;2023-04-24T12:50:40;19.97;54.05
70534;SHT31;58088;51.186;17.130;2023-04-24T12:53:08;19.88;54.17
70534;SHT31;58088;51.186;17.130;2023-04-24T12:55:35;19.81;54.78
70534;SHT31;58088;51.186;17.130;2023-04-24T12:58:02;19.80;55.48
70534;SHT31;58088;51.186;17.130;2023-04-24T13:00:28;19.79;56.30
70534;SHT31;58088;51.186;17.130;2023-04-24T13:02:55;19.81;56.18
70534;SHT31;58088;51.186;17.130;2023-04-24T13:05:21;19.82;55.72
70534;SHT31;58088;51.186;17.130;2023-04-24T13:07:47;19.82;55.33
70534;SHT31;58088;51.186;17.130;2023-04-24T13:10:13;19.75;55.43
70534;SHT31;58088;51.186;17.130;2023-04-24T13:12:39;19.73;56.11
70534;SHT31;58088;51.186;17.130;2023-04-24T13:15:06;19.69;56.29
70534;SHT31;58088;51.186;17.130;2023-04-24T13:17:33;19.47;57.84
70534;SHT31;58088;51.186;17.130;2023-04-24T13:19:59;19.10;59.73
70534;SHT31;58088;51.186;17.130;2023-04-24T13:22:25;18.68;60.84
70534;SHT31;58088;51.186;17.130;2023-04-24T13:24:51;18.34;61.39
70534;SHT31;58088;51.186;17.130;2023-04-24T13:27:18;18.10;61.87
70534;SHT31;58088;51.186;17.130;2023-04-24T13:29:44;17.96;62.38
70534;SHT31;58088;51.186;17.130;2023-04-24T13:32:11;17.84;62.28
70534;SHT31;58088;51.186;17.130;2023-04-24T13:34:37;17.73;62.34
70534;SHT31;58088;51.186;17.130;2023-04-24T13:37:04;17.65;62.35
70534;SHT31;58088;51.186;17.130;2023-04-24T13:39:31;17.49;61.94
70534;SHT31;58088;51.186;17.130;2023-04-24T13:41:58;17.26;62.24
70534;SHT31;58088;51.186;17.130;2023-04-24T13:44:25;17.08;62.52
70534;SHT31;58088;51.186;17.130;2023-04-24T13:46:52;16.92;62.78
70534;SHT31;58088;51.186;17.130;2023-04-24T13:49:22;16.86;63.04
70534;SHT31;58088;51.186;17.130;2023-04-24T13:51:53;16.75;62.98
70534;SHT31;58088;51.186;17.130;2023-04-24T13:54:21;16.66;63.06
70534;SHT31;58088;51.186;17.130;2023-04-24T13:56:49;16.59;63.21
70534;SHT31;58088;51.186;17.130;2023-04-24T13:59:16;16.53;63.24
70534;SHT31;58088;51.186;17.130;2023-04-24T14:01:42;16.48;63.59
70534;SHT31;58088;51.186;17.130;2023-04-24T14:04:10;16.44;63.93
70534;SHT31;58088;51.186;17.130;2023-04-24T14:06:36;16.43;64.01
70534;SHT31;58088;51.186;17.130;2023-04-24T14:09:03;16.41;64.16
70534;SHT31;58088;51.186;17.130;2023-04-24T14:11:29;16.39;64.06
70534;SHT31;58088;51.186;17.130;2023-04-24T14:13:56;16.40;64.20
70534;SHT31;58088;51.186;17.130;2023-04-24T14:16:22;16.44;64.32
70534;SHT31;58088;51.186;17.130;2023-04-24T14:18:49;16.43;64.29
70534;SHT31;58088;51.186;17.130;2023-04-24T14:21:19;16.42;64.46
70534;SHT31;58088;51.186;17.130;2023-04-24T14:23:45;16.39;64.46
70534;SHT31;58088;51.186;17.130;2023-04-24T14:26:11;16.38;64.28
70534;SHT31;58088;51.186;17.130;2023-04-24T14:28:37;16.37;63.96
70534;SHT31;58088;51.186;17.130;2023-04-24T14:31:03;16.37;64.17
70534;SHT31;58088;51.186;17.130;2023-04-24T14:33:30;16.39;64.02
70534;SHT31;58088;51.186;17.130;2023-04-24T14:35:57;16.36;63.70
70534;SHT31;58088;51.186;17.130;2023-04-24T14:38:23;16.34;63.66
70534;SHT31;58088;51.186;17.130;2023-04-24T14:40:50;16.32;63.55
70534;SHT31;58088;51.186;17.130;2023-04-24T14:43:16;16.34;63.60
70534;SHT31;58088;51.186;17.130;2023-04-24T14:45:43;16.36;63.42
70534;SHT31;58088;51.186;17.130;2023-04-24T14:48:09;16.36;63.36
70534;SHT31;58088;51.186;17.130;2023-04-24T14:50:36;16.35;63.54
70534;SHT31;58088;51.186;17.130;2023-04-24T14:53:02;16.35;63.65
70534;SHT31;58088;51.186;17.130;2023-04-24T14:55:29;16.36;63.39
70534;SHT31;58088;51.186;17.130;2023-04-24T14:57:56;16.39;63.57
70534;SHT31;58088;51.186;17.130;2023-04-24T15:00:26;16.40;63.24
70534;SHT31;58088;51.186;17.130;2023-04-24T15:02:53;16.42;63.37
70534;SHT31;58088;51.186;17.130;2023-04-24T15:05:22;16.46;63.57
70534;SHT31;58088;51.186;17.130;2023-04-24T15:07:50;16.50;63.68
70534;SHT31;58088;51.186;17.130;2023-04-24T15:10:16;16.55;63.50
70534;SHT31;58088;51.186;17.130;2023-04-24T15:12:43;16.55;63.24
70534;SHT31;58088;51.186;17.130;2023-04-24T15:15:10;16.55;63.24
70534;SHT31;58088;51.186;17.130;2023-04-24T15:17:36;16.55;63.59
70534;SHT31;58088;51.186;17.130;2023-04-24T15:20:02;16.53;63.75
70534;SHT31;58088;51.186;17.130;2023-04-24T15:22:32;16.53;63.78
70534;SHT31;58088;51.186;17.130;2023-04-24T15:24:58;16.52;64.20
70534;SHT31;58088;51.186;17.130;2023-04-24T15:27:25;16.50;64.47
70534;SHT31;58088;51.186;17.130;2023-04-24T15:29:52;16.48;64.69
70534;SHT31;58088;51.186;17.130;2023-04-24T15:32:19;16.49;64.73